Time;durP1;ratioP1;P1;durP2;ratioP2;P2;SDS_P1;SDS_P2;PMS_P1;PMS_P2;Temp;Humidity;BMP_temperature;BMP_pressure;BME280_temperature;BME280_humidity;BME280_pressure;Samples;Min_cycle;Max_cycle;Signal;HPM_P1;HPM_P2
2022/04/24 00:01:27;;;;;;;8.63;7.73;;;14.20;99.20;;;;;;5007018;28;20515;-69
2022/04/24 00:03:53;;;;;;;9.13;8.00;;;14.20;99.20;;;;;;5007086;28;20282;-69
2022/04/24 00:06:19;;;;;;;11.47;8.53;;;14.00;99.40;;;;;;5007776;28;20401;-69
2022/04/24 00:08:44;;;;;;;8.73;7.80;;;14.10;99.90;;;;;;5011272;28;20440;-69
2022/04/24 00:11:10;;;;;;;10.50;8.50;;;14.10;99.90;;;;;;5010937;28;20596;-69
2022/04/24 00:13:38;;;;;;;9.73;8.60;;;14.10;99.90;;;;;;5010205;28;20284;-68
2022/04/24 00:16:06;;;;;;;9.97;8.50;;;14.10;99.90;;;;;;5010928;28;20637;-69
2022/04/24 00:18:31;;;;;;;10.50;8.73;;;14.00;99.90;;;;;;5011227;28;20478;-69
2022/04/24 00:20:57;;;;;;;12.17;8.33;;;14.00;99.90;;;;;;5009167;28;20532;-68
2022/04/24 00:23:22;;;;;;;10.30;8.80;;;14.00;99.90;;;;;;5011074;28;20664;-69
2022/04/24 00:25:48;;;;;;;12.47;9.10;;;14.00;99.90;;;;;;5013320;28;20179;-69
2022/04/24 00:28:14;;;;;;;10.70;7.70;;;14.00;99.90;;;;;;5011106;28;20178;-69
2022/04/24 00:30:39;;;;;;;9.37;8.20;;;14.10;99.90;;;;;;5010114;28;20171;-69
2022/04/24 00:33:05;;;;;;;10.03;8.53;;;14.00;99.90;;;;;;5010365;28;20447;-69
2022/04/24 00:35:31;;;;;;;12.30;8.23;;;14.00;99.90;;;;;;5011258;28;20170;-69
2022/04/24 00:37:57;;;;;;;8.80;7.90;;;14.00;99.90;;;;;;5009153;28;20221;-69
2022/04/24 00:40:22;;;;;;;10.07;8.27;;;14.00;99.90;;;;;;5011161;28;20656;-69
2022/04/24 00:42:49;;;;;;;9.23;8.10;;;14.00;99.90;;;;;;5008926;28;20449;-69
2022/04/24 00:45:15;;;;;;;11.07;8.20;;;13.90;99.90;;;;;;5008788;28;20170;-69
2022/04/24 00:47:43;;;;;;;10.17;7.93;;;13.90;99.90;;;;;;5010191;28;20429;-69
2022/04/24 00:50:09;;;;;;;15.10;7.50;;;13.80;99.90;;;;;;5017603;28;20167;-69
2022/04/24 00:52:35;;;;;;;9.23;8.10;;;13.80;99.90;;;;;;5005579;28;20439;-68
2022/04/24 00:55:01;;;;;;;9.77;7.90;;;13.80;99.90;;;;;;4996050;28;20380;-69
2022/04/24 00:57:27;;;;;;;10.30;8.20;;;13.80;99.90;;;;;;5004912;28;20427;-69
2022/04/24 00:59:52;;;;;;;9.27;8.30;;;13.70;99.90;;;;;;5016022;28;20206;-69
2022/04/24 01:02:18;;;;;;;10.20;7.77;;;13.70;99.90;;;;;;5008782;28;20194;-68
2022/04/24 01:04:43;;;;;;;11.00;8.50;;;13.70;99.90;;;;;;5010361;28;20246;-68
2022/04/24 01:07:10;;;;;;;13.50;7.90;;;13.70;99.90;;;;;;5008897;28;20273;-69
2022/04/24 01:09:36;;;;;;;8.93;7.23;;;13.70;99.90;;;;;;5008088;28;20603;-69
2022/04/24 01:12:05;;;;;;;11.77;7.27;;;13.60;99.90;;;;;;5008292;28;20426;-69
2022/04/24 01:14:31;;;;;;;10.60;8.67;;;13.60;99.90;;;;;;5008162;28;20418;-69
2022/04/24 01:16:57;;;;;;;9.60;7.67;;;13.60;99.90;;;;;;5010040;28;20507;-69
2022/04/24 01:19:25;;;;;;;8.77;7.87;;;13.60;99.90;;;;;;5009158;28;20457;-69
2022/04/24 01:21:51;;;;;;;10.00;7.53;;;13.50;99.90;;;;;;5010355;28;20466;-69
2022/04/24 01:24:20;;;;;;;8.53;7.57;;;13.60;99.90;;;;;;5014989;28;20448;-67
2022/04/24 01:26:45;;;;;;;9.60;7.70;;;13.60;99.90;;;;;;5011596;28;20384;-69
2022/04/24 01:29:11;;;;;;;8.43;6.93;;;13.60;99.90;;;;;;5009352;28;20650;-68
2022/04/24 01:31:40;;;;;;;9.80;8.27;;;13.60;99.90;;;;;;5009739;28;20171;-69
2022/04/24 01:34:06;;;;;;;9.40;7.37;;;13.60;99.90;;;;;;5009802;28;20194;-69
2022/04/24 01:36:32;;;;;;;8.83;7.93;;;13.70;99.90;;;;;;5009322;28;20421;-68
2022/04/24 01:38:57;;;;;;;8.50;7.60;;;13.70;99.90;;;;;;5008013;28;20810;-68
2022/04/24 01:41:23;;;;;;;8.27;7.47;;;13.60;99.90;;;;;;5008119;28;20298;-69
2022/04/24 01:43:49;;;;;;;10.17;7.83;;;13.60;99.90;;;;;;5009725;28;20194;-69
2022/04/24 01:46:16;;;;;;;10.60;7.40;;;13.70;99.90;;;;;;5008807;28;20170;-68
2022/04/24 01:48:41;;;;;;;8.90;7.80;;;13.70;99.90;;;;;;5009394;28;20425;-69
2022/04/24 01:51:08;;;;;;;8.53;7.57;;;14.00;99.90;;;;;;5007475;28;20436;-68
2022/04/24 01:53:35;;;;;;;8.73;7.27;;;13.70;99.90;;;;;;5009138;28;20641;-69
2022/04/24 01:56:03;;;;;;;8.50;7.23;;;13.70;99.90;;;;;;5008549;28;20421;-69
2022/04/24 01:58:28;;;;;;;8.40;7.23;;;13.80;99.90;;;;;;5009032;28;20936;-69
2022/04/24 02:00:54;;;;;;;8.97;7.67;;;13.80;99.90;;;;;;5008152;28;20416;-68
2022/04/24 02:03:21;;;;;;;9.27;7.40;;;13.80;99.90;;;;;;5009433;28;20649;-69
2022/04/24 02:05:47;;;;;;;9.00;7.30;;;13.90;99.90;;;;;;5009089;28;20439;-69
2022/04/24 02:08:14;;;;;;;8.83;7.53;;;13.90;99.90;;;;;;5007253;28;20432;-69
2022/04/24 02:10:40;;;;;;;9.80;7.90;;;14.00;99.90;;;;;;5009408;28;20417;-69
2022/04/24 02:13:06;;;;;;;11.10;7.40;;;14.00;99.90;;;;;;5009227;28;20461;-69
2022/04/24 02:15:31;;;;;;;9.30;7.50;;;14.00;99.90;;;;;;5007341;28;20838;-69
2022/04/24 02:17:57;;;;;;;8.10;7.23;;;14.00;99.90;;;;;;5008904;28;20206;-69
2022/04/24 02:20:24;;;;;;;9.60;7.77;;;14.00;99.90;;;;;;5008913;28;20206;-69
2022/04/24 02:22:50;;;;;;;8.83;7.30;;;14.00;99.90;;;;;;5007987;28;20819;-69
2022/04/24 02:25:17;;;;;;;9.70;7.23;;;14.00;99.90;;;;;;5020766;28;20471;-70
2022/04/24 02:27:43;;;;;;;10.07;7.37;;;14.00;99.90;;;;;;5010928;28;20504;-69
2022/04/24 02:30:10;;;;;;;7.93;6.70;;;14.10;99.90;;;;;;5023450;28;20422;-69
2022/04/24 02:32:35;;;;;;;9.70;7.53;;;14.10;99.90;;;;;;5008168;28;20452;-68
2022/04/24 02:35:01;;;;;;;8.60;7.40;;;14.20;99.90;;;;;;5008267;28;20779;-69
2022/04/24 02:37:27;;;;;;;9.90;7.30;;;14.20;99.90;;;;;;5008744;28;20247;-69
2022/04/24 02:39:53;;;;;;;7.93;7.13;;;14.20;99.90;;;;;;5008380;28;20332;-69
2022/04/24 02:42:19;;;;;;;8.40;7.13;;;14.20;99.90;;;;;;5008452;28;21022;-69
2022/04/24 02:44:44;;;;;;;10.40;7.40;;;14.30;99.90;;;;;;5008195;28;20189;-69
2022/04/24 02:47:10;;;;;;;13.50;7.20;;;14.20;99.90;;;;;;5007023;28;20249;-69
2022/04/24 02:49:36;;;;;;;8.77;7.87;;;14.20;99.90;;;;;;5006232;28;20187;-68
2022/04/24 02:52:01;;;;;;;8.17;7.37;;;14.20;99.90;;;;;;5008403;28;20272;-69
2022/04/24 02:54:27;;;;;;;9.80;8.20;;;14.20;99.90;;;;;;5014670;28;20666;-70
2022/04/24 02:56:52;;;;;;;9.17;7.60;;;14.20;99.90;;;;;;5034745;28;20182;-69
2022/04/24 02:59:18;;;;;;;8.80;7.70;;;14.20;99.90;;;;;;5009401;28;20245;-68
2022/04/24 03:01:45;;;;;;;12.33;7.80;;;14.20;99.90;;;;;;5007004;28;20175;-69
2022/04/24 03:04:11;;;;;;;8.17;7.27;;;14.20;99.90;;;;;;5008043;28;20194;-69
2022/04/24 03:06:37;;;;;;;9.17;7.80;;;14.20;99.90;;;;;;5006583;28;20417;-69
2022/04/24 03:09:03;;;;;;;8.77;7.70;;;14.20;99.90;;;;;;5006336;28;20433;-69
2022/04/24 03:11:28;;;;;;;9.07;7.73;;;14.10;99.90;;;;;;5007762;28;20431;-68
2022/04/24 03:13:54;;;;;;;9.43;8.23;;;14.10;99.90;;;;;;5008552;28;20198;-69
2022/04/24 03:16:20;;;;;;;8.53;7.50;;;14.00;99.90;;;;;;5007522;28;20595;-69
2022/04/24 03:18:45;;;;;;;8.73;7.40;;;14.00;99.90;;;;;;5006279;28;20217;-68
2022/04/24 03:21:11;;;;;;;10.00;8.87;;;14.00;99.90;;;;;;5007392;28;20836;-69
2022/04/24 03:23:36;;;;;;;9.77;8.47;;;14.00;99.90;;;;;;5007434;28;20206;-69
2022/04/24 03:26:02;;;;;;;10.93;8.27;;;14.00;99.90;;;;;;5015144;28;20171;-69
2022/04/24 03:28:27;;;;;;;10.17;8.07;;;13.90;99.90;;;;;;5007704;28;20166;-69
2022/04/24 03:30:53;;;;;;;9.70;8.70;;;13.90;99.90;;;;;;5007190;28;20217;-68
2022/04/24 03:33:18;;;;;;;9.57;8.03;;;14.00;99.90;;;;;;5007636;28;20210;-69
2022/04/24 03:35:44;;;;;;;11.50;8.63;;;13.90;99.90;;;;;;5007782;28;20252;-69
2022/04/24 03:38:09;;;;;;;8.87;7.90;;;13.90;99.90;;;;;;5007319;28;20272;-68
2022/04/24 03:40:35;;;;;;;10.80;8.80;;;13.90;99.90;;;;;;5006388;28;20170;-69
2022/04/24 03:43:00;;;;;;;11.37;8.37;;;14.20;99.90;;;;;;5006751;28;20266;-69
2022/04/24 03:45:26;;;;;;;9.47;8.47;;;13.90;99.90;;;;;;5007284;28;20201;-68
2022/04/24 03:47:52;;;;;;;10.53;8.40;;;13.90;99.90;;;;;;5007464;28;20175;-69
2022/04/24 03:50:19;;;;;;;11.43;8.87;;;13.90;99.90;;;;;;5007364;28;20629;-69
2022/04/24 03:52:45;;;;;;;10.90;9.37;;;13.90;99.90;;;;;;5007244;28;20265;-68
2022/04/24 03:55:10;;;;;;;11.90;9.20;;;13.90;99.90;;;;;;5015345;28;20587;-69
2022/04/24 03:57:36;;;;;;;10.37;9.10;;;13.80;99.90;;;;;;5022880;28;20700;-68
2022/04/24 04:00:03;;;;;;;11.97;8.83;;;13.90;99.90;;;;;;5006461;28;20190;-68
2022/04/24 04:02:29;;;;;;;10.50;9.40;;;13.80;99.90;;;;;;5005688;28;20676;-68
2022/04/24 04:04:54;;;;;;;11.60;10.00;;;13.80;99.90;;;;;;5005943;28;20421;-68
2022/04/24 04:07:20;;;;;;;15.53;9.80;;;13.70;99.90;;;;;;5007785;28;20667;-69
2022/04/24 04:09:46;;;;;;;11.00;8.93;;;13.90;99.90;;;;;;5007503;28;20664;-69
2022/04/24 04:12:11;;;;;;;10.23;9.17;;;13.60;99.90;;;;;;5003642;28;20555;-69
2022/04/24 04:14:37;;;;;;;11.00;9.80;;;13.60;99.90;;;;;;5006552;28;20328;-67
2022/04/24 04:17:03;;;;;;;11.10;9.20;;;13.60;99.90;;;;;;5006932;28;20579;-68
2022/04/24 04:19:29;;;;;;;12.87;10.07;;;13.60;99.90;;;;;;5007629;28;20672;-68
2022/04/24 04:21:54;;;;;;;9.67;8.23;;;13.70;99.90;;;;;;5006545;28;20166;-68
2022/04/24 04:24:20;;;;;;;9.43;8.13;;;13.60;99.90;;;;;;5012733;28;20448;-68
2022/04/24 04:26:46;;;;;;;12.27;10.20;;;13.60;99.90;;;;;;5017058;28;20586;-68
2022/04/24 04:29:11;;;;;;;9.83;8.73;;;13.60;99.90;;;;;;5026902;28;20174;-68
2022/04/24 04:31:37;;;;;;;11.90;9.87;;;13.60;99.90;;;;;;5019639;28;20541;-68
2022/04/24 04:34:03;;;;;;;10.67;8.90;;;13.70;99.90;;;;;;5005337;28;20278;-68
2022/04/24 04:36:29;;;;;;;12.30;10.27;;;13.70;99.90;;;;;;5006762;28;20523;-68
2022/04/24 04:38:54;;;;;;;11.23;9.30;;;13.70;99.90;;;;;;5007050;28;20206;-68
2022/04/24 04:41:20;;;;;;;10.30;8.57;;;13.70;99.90;;;;;;5006418;28;21070;-67
2022/04/24 04:43:45;;;;;;;12.10;9.80;;;13.70;99.90;;;;;;5007303;28;20187;-68
2022/04/24 04:46:11;;;;;;;10.90;9.20;;;13.80;99.90;;;;;;5006218;28;20297;-68
2022/04/24 04:48:37;;;;;;;10.13;8.77;;;13.70;99.90;;;;;;5004690;28;20618;-68
2022/04/24 04:51:02;;;;;;;11.23;9.03;;;13.80;99.90;;;;;;5004850;28;20261;-68
2022/04/24 04:53:28;;;;;;;13.53;9.63;;;13.70;99.90;;;;;;5006645;28;20214;-67
2022/04/24 04:55:53;;;;;;;11.20;9.10;;;13.90;99.90;;;;;;5018320;28;20218;-68
2022/04/24 04:58:19;;;;;;;9.80;8.20;;;13.80;99.90;;;;;;5010443;28;20199;-69
2022/04/24 05:00:44;;;;;;;11.77;8.77;;;13.80;99.90;;;;;;5009677;28;20178;-68
2022/04/24 05:03:10;;;;;;;10.50;9.07;;;13.80;99.90;;;;;;5010344;28;20198;-68
2022/04/24 05:05:35;;;;;;;10.13;8.30;;;13.70;99.90;;;;;;5010099;28;20604;-68
2022/04/24 05:08:01;;;;;;;10.20;8.30;;;13.80;99.90;;;;;;5009795;28;20221;-67
2022/04/24 05:10:26;;;;;;;11.70;8.90;;;13.80;99.90;;;;;;5010370;28;20183;-67
2022/04/24 05:12:52;;;;;;;9.37;8.33;;;13.70;99.90;;;;;;5009876;28;20202;-68
2022/04/24 05:15:19;;;;;;;10.50;8.67;;;14.00;99.90;;;;;;5008064;28;20183;-67
2022/04/24 05:17:45;;;;;;;11.53;8.83;;;13.60;99.90;;;;;;5008520;28;20250;-68
2022/04/24 05:20:11;;;;;;;9.50;8.50;;;13.60;99.90;;;;;;5009547;28;20662;-69
2022/04/24 05:22:38;;;;;;;9.87;8.60;;;13.60;99.90;;;;;;5009481;28;20198;-69
2022/04/24 05:25:07;;;;;;;9.73;8.23;;;13.70;99.90;;;;;;5016306;28;20414;-69
2022/04/24 05:27:32;;;;;;;9.77;8.40;;;13.80;99.90;;;;;;5006076;28;20980;-69
2022/04/24 05:29:58;;;;;;;11.40;9.27;;;13.90;99.90;;;;;;5009288;28;20529;-68
2022/04/24 05:32:24;;;;;;;11.17;9.40;;;13.90;99.90;;;;;;5009488;28;20572;-69
2022/04/24 05:34:50;;;;;;;10.93;9.30;;;13.70;99.90;;;;;;5009672;28;20183;-69
2022/04/24 05:37:16;;;;;;;12.20;9.70;;;13.70;99.90;;;;;;5008422;28;20166;-69
2022/04/24 05:39:42;;;;;;;12.07;9.47;;;13.50;99.90;;;;;;5009369;28;20516;-69
2022/04/24 05:42:07;;;;;;;13.43;9.70;;;13.40;99.90;;;;;;5009473;28;20193;-69
2022/04/24 05:44:33;;;;;;;11.00;9.80;;;13.40;99.90;;;;;;5008994;28;20175;-69
2022/04/24 05:46:59;;;;;;;12.40;10.00;;;13.30;99.90;;;;;;5007990;28;20171;-69
2022/04/24 05:49:25;;;;;;;15.47;10.10;;;13.30;99.90;;;;;;5008307;28;20178;-68
2022/04/24 05:51:50;;;;;;;12.93;9.90;;;13.20;99.90;;;;;;5009606;28;20406;-69
2022/04/24 05:54:16;;;;;;;10.60;9.50;;;13.20;99.90;;;;;;5011484;28;20257;-68
2022/04/24 05:56:41;;;;;;;12.20;10.13;;;13.20;99.90;;;;;;5017610;28;20182;-68
2022/04/24 05:59:08;;;;;;;12.20;9.93;;;13.20;99.90;;;;;;5023772;28;20206;-69
2022/04/24 06:01:34;;;;;;;14.90;10.83;;;13.20;99.90;;;;;;5007141;28;20178;-68
2022/04/24 06:04:00;;;;;;;11.10;9.67;;;13.10;99.90;;;;;;5009493;28;20484;-68
2022/04/24 06:06:29;;;;;;;12.67;10.30;;;13.00;99.90;;;;;;5008681;28;20724;-69
2022/04/24 06:08:54;;;;;;;12.60;10.60;;;13.00;99.90;;;;;;5008808;28;20711;-69
2022/04/24 06:11:20;;;;;;;14.03;11.17;;;13.00;99.90;;;;;;5007477;28;20428;-69
2022/04/24 06:13:46;;;;;;;14.40;10.70;;;12.70;99.90;;;;;;5007403;28;20194;-69
2022/04/24 06:16:12;;;;;;;11.90;9.70;;;12.50;99.90;;;;;;5006962;28;20544;-69
2022/04/24 06:18:38;;;;;;;14.30;11.07;;;12.30;99.90;;;;;;5009151;28;20484;-68
2022/04/24 06:21:04;;;;;;;13.53;11.30;;;12.00;99.90;;;;;;5007251;28;20162;-68
2022/04/24 06:23:31;;;;;;;19.50;11.70;;;11.80;99.90;;;;;;5007342;28;20440;-69
2022/04/24 06:25:57;;;;;;;14.90;11.93;;;11.80;99.90;;;;;;5020456;28;20158;-68
2022/04/24 06:28:23;;;;;;;17.80;12.47;;;11.70;99.90;;;;;;5024035;28;20424;-69
2022/04/24 06:30:48;;;;;;;13.80;11.20;;;11.70;99.90;;;;;;5008232;28;20177;-68
2022/04/24 06:33:14;;;;;;;14.93;11.93;;;11.70;99.90;;;;;;5008380;28;20229;-69
2022/04/24 06:35:41;;;;;;;17.57;12.70;;;11.60;99.90;;;;;;5008867;28;20198;-68
2022/04/24 06:38:07;;;;;;;15.30;12.47;;;11.50;99.90;;;;;;5007998;28;20453;-68
2022/04/24 06:40:33;;;;;;;17.40;13.23;;;11.40;99.90;;;;;;5008494;28;20398;-68
2022/04/24 06:43:06;;;;;;;16.90;12.67;;;11.30;99.90;;;;;;5008196;28;20425;-68
2022/04/24 06:45:39;;;;;;;17.20;12.63;;;11.30;99.90;;;;;;5008010;28;20178;-70
2022/04/24 06:48:10;;;;;;;16.70;13.37;;;11.30;99.90;;;;;;5008262;28;20468;-69
2022/04/24 06:50:38;;;;;;;17.60;13.50;;;11.30;99.90;;;;;;5008255;28;20998;-69
2022/04/24 06:53:06;;;;;;;17.57;13.47;;;11.30;99.90;;;;;;5007809;28;20455;-69
2022/04/24 06:55:36;;;;;;;20.13;14.90;;;11.30;99.90;;;;;;5021607;28;20447;-69
2022/04/24 06:58:05;;;;;;;17.00;14.30;;;11.30;99.90;;;;;;4988604;28;22346;-68
2022/04/24 07:00:33;;;;;;;20.30;14.23;;;11.30;99.90;;;;;;4988781;28;20903;-69
2022/04/24 07:02:59;;;;;;;28.17;20.93;;;11.30;99.90;;;;;;4987175;28;20827;-69
2022/04/24 07:05:26;;;;;;;20.00;14.83;;;11.20;99.90;;;;;;4996885;28;20436;-69
2022/04/24 07:07:53;;;;;;;19.40;15.20;;;11.20;99.90;;;;;;5005866;28;20193;-69
2022/04/24 07:10:19;;;;;;;18.07;14.70;;;11.30;99.90;;;;;;5008245;28;20508;-69
2022/04/24 07:12:45;;;;;;;18.33;13.80;;;11.30;99.90;;;;;;5007938;28;20569;-69
2022/04/24 07:15:10;;;;;;;19.77;15.17;;;11.20;99.90;;;;;;5005500;28;20418;-69
2022/04/24 07:17:36;;;;;;;29.30;21.10;;;11.20;99.90;;;;;;5007684;28;20525;-69
2022/04/24 07:20:02;;;;;;;24.57;16.60;;;11.30;99.90;;;;;;5007939;28;20210;-69
2022/04/24 07:22:27;;;;;;;27.33;18.37;;;11.30;99.90;;;;;;5007028;28;20757;-69
2022/04/24 07:24:53;;;;;;;32.67;21.80;;;11.30;99.90;;;;;;5006967;28;20179;-69
2022/04/24 07:27:20;;;;;;;21.27;14.73;;;11.20;99.90;;;;;;5001868;28;20558;-68
2022/04/24 07:29:45;;;;;;;24.47;15.43;;;11.20;99.90;;;;;;5005804;28;20659;-69
2022/04/24 07:32:11;;;;;;;22.83;17.30;;;11.10;99.90;;;;;;5006183;28;20422;-70
2022/04/24 07:34:36;;;;;;;31.05;19.52;;;11.20;99.90;;;;;;5007241;28;20531;-71
2022/04/24 07:37:02;;;;;;;22.47;17.87;;;11.10;99.90;;;;;;5006438;28;20580;-71
2022/04/24 07:39:30;;;;;;;33.17;21.73;;;11.10;99.90;;;;;;5006657;28;20524;-71
2022/04/24 07:41:56;;;;;;;37.00;22.47;;;11.10;99.90;;;;;;5009979;28;20170;-71
2022/04/24 07:44:22;;;;;;;39.50;22.17;;;11.20;99.90;;;;;;5016642;28;20455;-70
2022/04/24 07:46:47;;;;;;;38.70;26.90;;;11.20;99.90;;;;;;5007512;28;20253;-69
2022/04/24 07:49:13;;;;;;;28.73;19.83;;;11.10;99.90;;;;;;5007588;28;20629;-69
2022/04/24 07:51:38;;;;;;;32.13;19.07;;;11.20;99.90;;;;;;5005485;28;20179;-69
2022/04/24 07:54:04;;;;;;;46.47;28.33;;;11.20;99.90;;;;;;5011359;28;20193;-70
2022/04/24 07:56:29;;;;;;;23.80;16.20;;;11.20;99.90;;;;;;5017090;28;20186;-69
2022/04/24 07:58:55;;;;;;;27.50;17.30;;;11.20;99.90;;;;;;5007319;28;20203;-69
2022/04/24 08:01:20;;;;;;;21.07;17.07;;;11.20;99.90;;;;;;5006917;28;20236;-69
2022/04/24 08:03:46;;;;;;;26.30;16.10;;;11.30;99.90;;;;;;5007180;28;20206;-69
2022/04/24 08:06:11;;;;;;;28.20;19.20;;;11.30;99.90;;;;;;5007916;28;20186;-69
2022/04/24 08:08:37;;;;;;;20.23;15.37;;;11.20;99.90;;;;;;5008008;28;20333;-69
2022/04/24 08:11:02;;;;;;;22.57;14.97;;;11.30;99.90;;;;;;5007938;28;20643;-69
2022/04/24 08:13:28;;;;;;;23.10;16.70;;;11.20;99.90;;;;;;5007582;28;20212;-69
2022/04/24 08:15:54;;;;;;;23.73;17.23;;;11.20;99.90;;;;;;5006242;28;20185;-68
2022/04/24 08:18:20;;;;;;;26.03;17.10;;;11.20;99.90;;;;;;5007996;28;20268;-69
2022/04/24 08:20:46;;;;;;;23.67;15.87;;;11.20;99.90;;;;;;5006468;28;20205;-69
2022/04/24 08:23:13;;;;;;;22.30;15.20;;;11.20;99.90;;;;;;5005474;28;20476;-69
2022/04/24 08:25:39;;;;;;;24.60;17.87;;;11.20;99.90;;;;;;5015701;28;20498;-69
2022/04/24 08:28:06;;;;;;;24.10;16.23;;;11.20;99.90;;;;;;5024287;28;20739;-69
2022/04/24 08:30:34;;;;;;;22.40;15.30;;;11.30;99.90;;;;;;5011020;28;20409;-68
2022/04/24 08:33:00;;;;;;;28.73;17.03;;;11.20;99.90;;;;;;5009775;28;20532;-69
2022/04/24 08:35:26;;;;;;;25.00;18.07;;;11.20;99.90;;;;;;5011294;28;20433;-69
2022/04/24 08:37:51;;;;;;;26.23;18.00;;;11.10;99.90;;;;;;5009896;28;20889;-69
2022/04/24 08:40:18;;;;;;;29.93;18.33;;;11.10;99.90;;;;;;5011809;28;20166;-69
2022/04/24 08:42:44;;;;;;;20.90;15.57;;;11.20;99.90;;;;;;5011094;28;20613;-70
2022/04/24 08:45:15;;;;;;;21.63;15.90;;;11.20;99.90;;;;;;5011036;28;20412;-68
2022/04/24 08:47:45;;;;;;;24.20;16.67;;;11.10;99.90;;;;;;5004454;28;20492;-69
2022/04/24 08:50:12;;;;;;;25.10;16.80;;;11.50;99.90;;;;;;5010780;28;20911;-69
2022/04/24 08:52:41;;;;;;;24.90;15.87;;;11.20;99.90;;;;;;5010640;28;20502;-69
2022/04/24 08:55:07;;;;;;;22.93;14.97;;;11.20;99.90;;;;;;5017752;28;20533;-70
2022/04/24 08:57:33;;;;;;;21.00;15.57;;;11.20;99.90;;;;;;5027230;28;20423;-69
2022/04/24 08:59:59;;;;;;;18.97;14.70;;;11.10;99.90;;;;;;5014589;28;20461;-69
2022/04/24 09:02:26;;;;;;;20.10;15.20;;;11.00;99.90;;;;;;5009288;28;20282;-69
2022/04/24 09:04:53;;;;;;;20.67;15.50;;;11.00;99.90;;;;;;5011174;28;20429;-68
2022/04/24 09:07:19;;;;;;;24.30;15.13;;;11.10;99.90;;;;;;5010947;28;20425;-68
2022/04/24 09:09:50;;;;;;;22.63;15.70;;;11.10;99.90;;;;;;5010657;28;20565;-69
2022/04/24 09:12:17;;;;;;;21.10;14.00;;;11.20;99.90;;;;;;5010461;28;20486;-69
2022/04/24 09:14:51;;;;;;;23.93;15.50;;;11.30;99.90;;;;;;5007526;28;20432;-69
2022/04/24 09:17:25;;;;;;;18.70;14.97;;;11.30;99.90;;;;;;5005883;28;20969;-68
2022/04/24 09:19:53;;;;;;;21.27;14.80;;;11.30;99.90;;;;;;5005685;28;20855;-69
2022/04/24 09:22:18;;;;;;;24.90;15.63;;;11.30;99.90;;;;;;5007683;28;20499;-69
2022/04/24 09:24:44;;;;;;;17.53;13.83;;;11.30;99.90;;;;;;5009153;28;20449;-69
2022/04/24 09:27:12;;;;;;;20.10;14.10;;;11.30;99.90;;;;;;5005029;28;20171;-69
2022/04/24 09:29:39;;;;;;;19.53;15.20;;;11.70;99.90;;;;;;5007614;28;20538;-69
2022/04/24 09:32:10;;;;;;;21.90;15.43;;;11.30;99.90;;;;;;5009924;28;20433;-69
2022/04/24 09:34:37;;;;;;;20.03;15.17;;;11.30;99.90;;;;;;5009801;28;20443;-69
2022/04/24 09:37:10;;;;;;;24.63;16.30;;;11.40;99.90;;;;;;5009578;28;20566;-69
2022/04/24 09:39:38;;;;;;;20.30;15.70;;;11.30;99.90;;;;;;5008369;28;20458;-69
2022/04/24 09:42:11;;;;;;;19.97;15.73;;;11.30;99.90;;;;;;5005993;28;20425;-68
2022/04/24 09:44:45;;;;;;;19.40;14.30;;;11.20;99.90;;;;;;5006692;28;20414;-68
2022/04/24 09:47:11;;;;;;;24.10;14.40;;;11.20;99.90;;;;;;5009443;28;20504;-68
2022/04/24 09:49:41;;;;;;;21.17;16.07;;;11.10;99.90;;;;;;5006997;28;20432;-69
2022/04/24 09:52:12;;;;;;;21.27;15.57;;;11.10;99.90;;;;;;5007132;28;20802;-69
2022/04/24 09:54:42;;;;;;;20.00;15.40;;;11.10;99.90;;;;;;5007843;28;21073;-68
2022/04/24 09:57:09;;;;;;;19.47;15.53;;;11.20;99.90;;;;;;5009474;28;20576;-68
2022/04/24 09:59:37;;;;;;;17.50;14.10;;;11.20;99.90;;;;;;5008602;28;20476;-67
2022/04/24 10:02:04;;;;;;;19.77;15.07;;;11.20;99.90;;;;;;5009065;28;20893;-68
2022/04/24 10:04:30;;;;;;;16.20;13.50;;;11.20;99.90;;;;;;5009558;28;20418;-69
2022/04/24 10:06:57;;;;;;;14.60;12.27;;;11.20;99.90;;;;;;5006900;28;20498;-69
2022/04/24 10:09:24;;;;;;;16.57;12.93;;;11.20;99.90;;;;;;5009296;28;20425;-69
2022/04/24 10:11:50;;;;;;;18.00;13.30;;;11.20;99.90;;;;;;5008154;28;20797;-69
2022/04/24 10:14:17;;;;;;;15.03;12.20;;;11.10;99.90;;;;;;5007222;28;20646;-69
2022/04/24 10:16:52;;;;;;;21.43;14.43;;;11.10;99.90;;;;;;5007039;28;20433;-68
2022/04/24 10:19:24;;;;;;;17.73;13.00;;;11.00;99.90;;;;;;5008407;28;20630;-69
2022/04/24 10:22:18;;;;;;;18.33;13.43;;;11.00;99.90;;;;;;5007877;28;20433;-69
2022/04/24 10:24:45;;;;;;;18.37;13.80;;;11.00;99.90;;;;;;5007641;28;20469;-69
2022/04/24 10:27:11;;;;;;;19.42;15.05;;;11.00;99.90;;;;;;5007360;28;20411;-68
2022/04/24 10:30:00;;;;;;;20.67;13.73;;;10.90;99.90;;;;;;5006234;28;20194;-68
2022/04/24 10:32:33;;;;;;;21.93;13.83;;;11.00;99.90;;;;;;5008488;28;20542;-67
2022/04/24 10:34:59;;;;;;;18.13;14.40;;;11.00;99.90;;;;;;5009280;28;20512;-68
2022/04/24 10:37:34;;;;;;;19.43;14.50;;;11.10;99.90;;;;;;5009015;28;20513;-69
2022/04/24 10:40:00;;;;;;;18.60;14.07;;;11.20;99.90;;;;;;5007717;28;21019;-68
2022/04/24 10:42:34;;;;;;;23.70;16.23;;;11.30;99.90;;;;;;5008393;28;20436;-68
2022/04/24 10:45:10;;;;;;;20.60;15.50;;;11.40;99.90;;;;;;5005713;28;20542;-68
2022/04/24 10:47:49;;;;;;;20.07;15.10;;;11.40;99.90;;;;;;4999639;28;20943;-66
2022/04/24 10:50:18;;;;;;;22.80;16.40;;;11.30;99.90;;;;;;5005974;28;20457;-68
2022/04/24 10:52:45;;;;;;;19.10;15.30;;;11.30;99.90;;;;;;5004539;28;20519;-68
2022/04/24 10:55:13;;;;;;;25.60;15.57;;;11.40;99.90;;;;;;5007431;28;20429;-68
2022/04/24 10:57:44;;;;;;;21.40;16.20;;;11.30;99.90;;;;;;5008341;28;20437;-68
2022/04/24 11:00:16;;;;;;;19.33;14.97;;;11.40;99.90;;;;;;5007411;28;20892;-68
2022/04/24 11:02:41;;;;;;;21.20;15.30;;;11.40;99.90;;;;;;5007354;28;20915;-68
2022/04/24 11:05:09;;;;;;;23.97;15.77;;;11.40;99.90;;;;;;5007631;28;20472;-67
2022/04/24 11:07:35;;;;;;;22.87;16.50;;;11.30;99.90;;;;;;5007663;28;20726;-68
2022/04/24 11:10:06;;;;;;;22.93;18.03;;;11.40;99.90;;;;;;5006133;28;20620;-67
2022/04/24 11:12:33;;;;;;;25.47;17.30;;;11.40;99.90;;;;;;5007959;28;20664;-68
2022/04/24 11:15:07;;;;;;;20.50;16.10;;;11.30;99.90;;;;;;5006013;28;20434;-68
2022/04/24 11:17:34;;;;;;;28.40;19.47;;;11.40;99.90;;;;;;5008166;28;20694;-68
2022/04/24 11:20:03;;;;;;;25.93;17.87;;;11.40;99.90;;;;;;5006995;28;20991;-68
2022/04/24 11:22:31;;;;;;;27.50;17.90;;;11.60;99.90;;;;;;5007163;28;20822;-68
2022/04/24 11:24:59;;;;;;;23.47;17.63;;;11.50;99.90;;;;;;5005321;28;20472;-67
2022/04/24 11:27:26;;;;;;;30.40;20.00;;;11.60;99.90;;;;;;5008002;28;20540;-68
2022/04/24 11:29:52;;;;;;;69.80;35.03;;;11.60;99.90;;;;;;5006508;28;20624;-69
2022/04/24 11:32:18;;;;;;;26.97;19.30;;;11.60;99.90;;;;;;5005144;28;21206;-68
2022/04/24 11:34:44;;;;;;;30.40;19.13;;;11.50;99.90;;;;;;5007687;28;20240;-68
2022/04/24 11:37:10;;;;;;;22.80;16.97;;;11.50;99.90;;;;;;5004502;28;20527;-68
2022/04/24 11:39:38;;;;;;;22.17;16.20;;;11.50;99.90;;;;;;5007381;28;20226;-68
2022/04/24 11:42:04;;;;;;;22.60;16.87;;;11.50;99.90;;;;;;5006880;28;20277;-68
2022/04/24 11:50:15;;;;;;;20.60;14.83;;;11.70;99.90;;;;;;5007415;28;20463;-69
2022/04/24 11:52:47;;;;;;;25.10;15.47;;;11.80;99.90;;;;;;5006230;28;20459;-68
2022/04/24 11:55:19;;;;;;;25.27;18.40;;;11.90;99.90;;;;;;5007007;28;20495;-68
2022/04/24 11:57:59;;;;;;;21.23;15.90;;;12.00;99.90;;;;;;5005489;28;20446;-68
2022/04/24 12:00:36;;;;;;;22.20;17.00;;;12.20;99.90;;;;;;5006321;28;20436;-68
2022/04/24 12:03:02;;;;;;;20.80;16.33;;;12.20;99.90;;;;;;5008540;28;20966;-68
2022/04/24 12:05:29;;;;;;;20.50;15.93;;;12.20;99.90;;;;;;5011051;28;20433;-68
2022/04/24 12:07:58;;;;;;;22.60;16.67;;;12.20;99.90;;;;;;5010541;28;20564;-68
2022/04/24 12:10:25;;;;;;;21.20;14.07;;;12.30;99.90;;;;;;5009252;28;20896;-68
2022/04/24 12:12:52;;;;;;;18.90;14.00;;;12.10;99.90;;;;;;5009014;28;20445;-68
2022/04/24 12:15:20;;;;;;;20.30;16.47;;;12.10;99.90;;;;;;5007497;28;20429;-68
2022/04/24 12:17:57;;;;;;;21.93;17.00;;;12.20;99.90;;;;;;5011570;28;20735;-68
2022/04/24 12:20:38;;;;;;;21.10;16.57;;;12.30;99.90;;;;;;5010475;28;20437;-68
2022/04/24 12:23:11;;;;;;;18.67;13.83;;;12.40;99.90;;;;;;5000989;28;20425;-68
2022/04/24 12:25:51;;;;;;;17.40;14.03;;;12.50;99.90;;;;;;5010775;28;20523;-68
2022/04/24 12:28:40;;;;;;;21.50;13.23;;;12.70;99.90;;;;;;5009091;28;20494;-68
2022/04/24 12:31:18;;;;;;;16.80;13.53;;;12.80;99.90;;;;;;5002203;28;20429;-68
2022/04/24 12:33:52;;;;;;;17.90;14.17;;;12.90;99.90;;;;;;5009763;28;20456;-68
2022/04/24 12:36:18;;;;;;;18.20;15.37;;;13.10;99.90;;;;;;5009105;28;20436;-68
2022/04/24 12:39:06;;;;;;;18.47;14.80;;;13.30;99.90;;;;;;5009272;28;20548;-68